sensor_id;sensor_type;location;lat;lon;timestamp;P1;durP1;ratioP1;P2;durP2;ratioP2
17369;SDS011;8802;52.402;4.920;2023-03-14T00:00:50;8.52;;;2.17;;
17369;SDS011;8802;52.402;4.920;2023-03-14T00:03:17;17.08;;;2.70;;
17369;SDS011;8802;52.402;4.920;2023-03-14T00:05:44;9.93;;;2.35;;
17369;SDS011;8802;52.402;4.920;2023-03-14T00:08:10;11.88;;;2.33;;
17369;SDS011;8802;52.402;4.920;2023-03-14T00:10:39;12.18;;;2.72;;
17369;SDS011;8802;52.402;4.920;2023-03-14T00:13:07;13.35;;;2.78;;
17369;SDS011;8802;52.402;4.920;2023-03-14T00:15:34;7.53;;;2.05;;
17369;SDS011;8802;52.402;4.920;2023-03-14T00:18:01;10.85;;;2.65;;
17369;SDS011;8802;52.402;4.920;2023-03-14T00:20:28;9.75;;;2.30;;
17369;SDS011;8802;52.402;4.920;2023-03-14T00:22:55;10.13;;;2.10;;
17369;SDS011;8802;52.402;4.920;2023-03-14T00:25:21;9.10;;;2.40;;
17369;SDS011;8802;52.402;4.920;2023-03-14T00:27:49;11.18;;;2.55;;
17369;SDS011;8802;52.402;4.920;2023-03-14T00:30:18;12.75;;;2.78;;
17369;SDS011;8802;52.402;4.920;2023-03-14T00:32:45;8.60;;;1.58;;
17369;SDS011;8802;52.402;4.920;2023-03-14T00:35:12;13.05;;;2.47;;
17369;SDS011;8802;52.402;4.920;2023-03-14T00:37:39;7.88;;;2.10;;
17369;SDS011;8802;52.402;4.920;2023-03-14T00:40:07;8.70;;;1.70;;
17369;SDS011;8802;52.402;4.920;2023-03-14T00:42:34;9.63;;;1.95;;
17369;SDS011;8802;52.402;4.920;2023-03-14T00:45:01;10.50;;;1.95;;
17369;SDS011;8802;52.402;4.920;2023-03-14T00:47:30;10.90;;;1.60;;
17369;SDS011;8802;52.402;4.920;2023-03-14T00:49:57;6.25;;;1.95;;
17369;SDS011;8802;52.402;4.920;2023-03-14T00:52:23;12.23;;;1.90;;
17369;SDS011;8802;52.402;4.920;2023-03-14T00:54:50;7.22;;;1.75;;
17369;SDS011;8802;52.402;4.920;2023-03-14T00:57:17;5.60;;;1.50;;
17369;SDS011;8802;52.402;4.920;2023-03-14T00:59:44;7.68;;;1.70;;
17369;SDS011;8802;52.402;4.920;2023-03-14T01:02:11;8.65;;;1.65;;
17369;SDS011;8802;52.402;4.920;2023-03-14T01:04:39;10.63;;;2.10;;
17369;SDS011;8802;52.402;4.920;2023-03-14T01:07:08;9.18;;;2.13;;
17369;SDS011;8802;52.402;4.920;2023-03-14T01:09:35;9.15;;;2.40;;
17369;SDS011;8802;52.402;4.920;2023-03-14T01:12:01;11.30;;;2.00;;
17369;SDS011;8802;52.402;4.920;2023-03-14T01:14:28;9.48;;;2.15;;
17369;SDS011;8802;52.402;4.920;2023-03-14T01:16:55;5.88;;;1.58;;
17369;SDS011;8802;52.402;4.920;2023-03-14T01:19:25;10.93;;;2.40;;
17369;SDS011;8802;52.402;4.920;2023-03-14T01:21:54;8.65;;;2.38;;
17369;SDS011;8802;52.402;4.920;2023-03-14T01:24:20;11.30;;;2.15;;
17369;SDS011;8802;52.402;4.920;2023-03-14T01:26:47;9.75;;;1.90;;
17369;SDS011;8802;52.402;4.920;2023-03-14T01:29:14;6.53;;;1.88;;
17369;SDS011;8802;52.402;4.920;2023-03-14T01:31:41;15.45;;;2.85;;
17369;SDS011;8802;52.402;4.920;2023-03-14T01:34:08;9.45;;;2.83;;
17369;SDS011;8802;52.402;4.920;2023-03-14T01:36:34;13.55;;;3.13;;
17369;SDS011;8802;52.402;4.920;2023-03-14T01:39:03;12.15;;;3.05;;
17369;SDS011;8802;52.402;4.920;2023-03-14T01:41:31;10.52;;;2.80;;
17369;SDS011;8802;52.402;4.920;2023-03-14T01:43:58;8.90;;;2.20;;
17369;SDS011;8802;52.402;4.920;2023-03-14T01:46:27;11.75;;;2.97;;
17369;SDS011;8802;52.402;4.920;2023-03-14T01:49:04;14.48;;;3.13;;
17369;SDS011;8802;52.402;4.920;2023-03-14T01:51:36;12.85;;;2.75;;
17369;SDS011;8802;52.402;4.920;2023-03-14T01:54:13;11.45;;;2.55;;
17369;SDS011;8802;52.402;4.920;2023-03-14T01:56:44;11.55;;;2.65;;
17369;SDS011;8802;52.402;4.920;2023-03-14T01:59:14;16.83;;;3.35;;
17369;SDS011;8802;52.402;4.920;2023-03-14T02:01:41;12.18;;;3.15;;
17369;SDS011;8802;52.402;4.920;2023-03-14T02:04:11;9.75;;;2.35;;
17369;SDS011;8802;52.402;4.920;2023-03-14T02:06:44;15.85;;;3.15;;
17369;SDS011;8802;52.402;4.920;2023-03-14T02:09:17;12.63;;;2.90;;
17369;SDS011;8802;52.402;4.920;2023-03-14T02:11:44;17.73;;;3.25;;
17369;SDS011;8802;52.402;4.920;2023-03-14T02:14:14;20.33;;;3.38;;
17369;SDS011;8802;52.402;4.920;2023-03-14T02:16:47;16.88;;;3.30;;
17369;SDS011;8802;52.402;4.920;2023-03-14T02:19:14;15.35;;;2.45;;
17369;SDS011;8802;52.402;4.920;2023-03-14T02:21:49;13.82;;;3.05;;
17369;SDS011;8802;52.402;4.920;2023-03-14T02:24:27;15.38;;;3.15;;
17369;SDS011;8802;52.402;4.920;2023-03-14T02:27:08;11.38;;;3.20;;
17369;SDS011;8802;52.402;4.920;2023-03-14T02:29:37;17.20;;;3.22;;
17369;SDS011;8802;52.402;4.920;2023-03-14T02:32:11;14.88;;;2.63;;
17369;SDS011;8802;52.402;4.920;2023-03-14T02:34:38;12.95;;;2.80;;
17369;SDS011;8802;52.402;4.920;2023-03-14T02:37:07;14.40;;;3.13;;
17369;SDS011;8802;52.402;4.920;2023-03-14T02:39:36;14.82;;;2.95;;
17369;SDS011;8802;52.402;4.920;2023-03-14T02:42:07;14.25;;;2.88;;
17369;SDS011;8802;52.402;4.920;2023-03-14T02:44:34;10.57;;;2.47;;
17369;SDS011;8802;52.402;4.920;2023-03-14T02:47:02;12.27;;;2.88;;
17369;SDS011;8802;52.402;4.920;2023-03-14T02:49:30;12.00;;;2.78;;
17369;SDS011;8802;52.402;4.920;2023-03-14T02:51:58;15.52;;;3.00;;
17369;SDS011;8802;52.402;4.920;2023-03-14T02:54:25;10.77;;;2.58;;
17369;SDS011;8802;52.402;4.920;2023-03-14T02:56:52;13.30;;;2.70;;
17369;SDS011;8802;52.402;4.920;2023-03-14T02:59:20;10.13;;;2.33;;
17369;SDS011;8802;52.402;4.920;2023-03-14T03:01:47;9.80;;;2.03;;
17369;SDS011;8802;52.402;4.920;2023-03-14T03:04:14;11.68;;;2.97;;
17369;SDS011;8802;52.402;4.920;2023-03-14T03:06:41;12.38;;;3.00;;
17369;SDS011;8802;52.402;4.920;2023-03-14T03:09:07;8.48;;;2.85;;
17369;SDS011;8802;52.402;4.920;2023-03-14T03:11:34;8.63;;;2.30;;
17369;SDS011;8802;52.402;4.920;2023-03-14T03:14:01;14.05;;;2.78;;
17369;SDS011;8802;52.402;4.920;2023-03-14T03:16:29;6.28;;;2.42;;
17369;SDS011;8802;52.402;4.920;2023-03-14T03:18:56;8.73;;;2.40;;
17369;SDS011;8802;52.402;4.920;2023-03-14T03:21:23;8.90;;;2.38;;
17369;SDS011;8802;52.402;4.920;2023-03-14T03:23:50;9.35;;;3.10;;
17369;SDS011;8802;52.402;4.920;2023-03-14T03:26:17;13.65;;;2.70;;
17369;SDS011;8802;52.402;4.920;2023-03-14T03:28:43;9.82;;;2.33;;
17369;SDS011;8802;52.402;4.920;2023-03-14T03:31:11;13.57;;;2.60;;
17369;SDS011;8802;52.402;4.920;2023-03-14T03:33:39;10.98;;;2.95;;
17369;SDS011;8802;52.402;4.920;2023-03-14T03:36:07;10.40;;;2.80;;
17369;SDS011;8802;52.402;4.920;2023-03-14T03:38:34;11.98;;;3.28;;
17369;SDS011;8802;52.402;4.920;2023-03-14T03:41:02;10.50;;;2.85;;
17369;SDS011;8802;52.402;4.920;2023-03-14T03:43:30;9.73;;;3.58;;
17369;SDS011;8802;52.402;4.920;2023-03-14T03:45:56;10.98;;;3.15;;
17369;SDS011;8802;52.402;4.920;2023-03-14T03:48:23;8.88;;;2.88;;
17369;SDS011;8802;52.402;4.920;2023-03-14T03:50:51;8.80;;;3.22;;
17369;SDS011;8802;52.402;4.920;2023-03-14T03:53:18;8.70;;;3.42;;
17369;SDS011;8802;52.402;4.920;2023-03-14T03:55:45;11.13;;;3.13;;
17369;SDS011;8802;52.402;4.920;2023-03-14T03:58:12;9.30;;;3.33;;
17369;SDS011;8802;52.402;4.920;2023-03-14T04:00:39;6.13;;;2.53;;
17369;SDS011;8802;52.402;4.920;2023-03-14T04:03:06;12.25;;;3.33;;
17369;SDS011;8802;52.402;4.920;2023-03-14T04:05:33;9.45;;;2.72;;
17369;SDS011;8802;52.402;4.920;2023-03-14T04:08:01;8.10;;;2.85;;
17369;SDS011;8802;52.402;4.920;2023-03-14T04:10:29;9.13;;;2.63;;
17369;SDS011;8802;52.402;4.920;2023-03-14T04:12:55;9.02;;;2.85;;
17369;SDS011;8802;52.402;4.920;2023-03-14T04:15:22;6.35;;;2.42;;
17369;SDS011;8802;52.402;4.920;2023-03-14T04:17:49;10.38;;;3.78;;
17369;SDS011;8802;52.402;4.920;2023-03-14T04:20:16;9.20;;;2.80;;
17369;SDS011;8802;52.402;4.920;2023-03-14T04:22:43;13.23;;;3.65;;
17369;SDS011;8802;52.402;4.920;2023-03-14T04:25:11;9.02;;;2.90;;
17369;SDS011;8802;52.402;4.920;2023-03-14T04:27:38;8.02;;;3.15;;
17369;SDS011;8802;52.402;4.920;2023-03-14T04:30:05;10.45;;;4.10;;
17369;SDS011;8802;52.402;4.920;2023-03-14T04:32:33;9.88;;;3.15;;
17369;SDS011;8802;52.402;4.920;2023-03-14T04:35:00;9.68;;;3.95;;
17369;SDS011;8802;52.402;4.920;2023-03-14T04:37:26;9.70;;;3.83;;
17369;SDS011;8802;52.402;4.920;2023-03-14T04:39:53;10.60;;;3.90;;
17369;SDS011;8802;52.402;4.920;2023-03-14T04:42:21;9.63;;;3.80;;
17369;SDS011;8802;52.402;4.920;2023-03-14T04:44:48;8.50;;;3.58;;
17369;SDS011;8802;52.402;4.920;2023-03-14T04:47:15;7.55;;;3.03;;
17369;SDS011;8802;52.402;4.920;2023-03-14T04:49:42;8.63;;;3.33;;
17369;SDS011;8802;52.402;4.920;2023-03-14T04:52:09;7.70;;;3.35;;
17369;SDS011;8802;52.402;4.920;2023-03-14T04:54:35;9.88;;;4.47;;
17369;SDS011;8802;52.402;4.920;2023-03-14T04:57:02;10.80;;;3.97;;
17369;SDS011;8802;52.402;4.920;2023-03-14T04:59:30;10.68;;;4.25;;
17369;SDS011;8802;52.402;4.920;2023-03-14T05:01:57;6.70;;;4.07;;
17369;SDS011;8802;52.402;4.920;2023-03-14T05:04:24;9.30;;;3.88;;
17369;SDS011;8802;52.402;4.920;2023-03-14T05:06:51;8.73;;;3.83;;
17369;SDS011;8802;52.402;4.920;2023-03-14T05:09:18;7.78;;;3.78;;
17369;SDS011;8802;52.402;4.920;2023-03-14T05:11:45;10.38;;;4.53;;
17369;SDS011;8802;52.402;4.920;2023-03-14T05:14:11;7.85;;;3.80;;
17369;SDS011;8802;52.402;4.920;2023-03-14T05:16:40;8.70;;;4.22;;
17369;SDS011;8802;52.402;4.920;2023-03-14T05:19:07;9.85;;;4.47;;
17369;SDS011;8802;52.402;4.920;2023-03-14T05:21:33;8.93;;;3.80;;
17369;SDS011;8802;52.402;4.920;2023-03-14T05:24:00;7.97;;;4.18;;
17369;SDS011;8802;52.402;4.920;2023-03-14T05:26:27;6.47;;;3.70;;
17369;SDS011;8802;52.402;4.920;2023-03-14T05:28:54;6.70;;;3.53;;
17369;SDS011;8802;52.402;4.920;2023-03-14T05:31:21;6.00;;;2.75;;
17369;SDS011;8802;52.402;4.920;2023-03-14T05:33:49;5.60;;;2.33;;
17369;SDS011;8802;52.402;4.920;2023-03-14T05:36:16;3.65;;;2.10;;
17369;SDS011;8802;52.402;4.920;2023-03-14T05:38:43;4.32;;;1.80;;
17369;SDS011;8802;52.402;4.920;2023-03-14T05:41:09;4.80;;;1.75;;
17369;SDS011;8802;52.402;4.920;2023-03-14T05:43:36;4.63;;;2.00;;
17369;SDS011;8802;52.402;4.920;2023-03-14T05:46:04;4.05;;;1.50;;
17369;SDS011;8802;52.402;4.920;2023-03-14T05:48:31;5.20;;;1.50;;
17369;SDS011;8802;52.402;4.920;2023-03-14T05:51:00;2.95;;;1.10;;
17369;SDS011;8802;52.402;4.920;2023-03-14T05:53:27;5.00;;;1.10;;
17369;SDS011;8802;52.402;4.920;2023-03-14T05:55:55;2.85;;;0.63;;
17369;SDS011;8802;52.402;4.920;2023-03-14T05:58:22;3.38;;;0.80;;
17369;SDS011;8802;52.402;4.920;2023-03-14T06:00:49;4.80;;;0.90;;
17369;SDS011;8802;52.402;4.920;2023-03-14T06:03:16;3.38;;;0.93;;
17369;SDS011;8802;52.402;4.920;2023-03-14T06:05:43;3.70;;;0.90;;
17369;SDS011;8802;52.402;4.920;2023-03-14T06:08:11;3.05;;;0.80;;
17369;SDS011;8802;52.402;4.920;2023-03-14T06:10:38;3.47;;;0.80;;
17369;SDS011;8802;52.402;4.920;2023-03-14T06:13:05;4.63;;;0.73;;
17369;SDS011;8802;52.402;4.920;2023-03-14T06:15:32;2.40;;;0.77;;
17369;SDS011;8802;52.402;4.920;2023-03-14T06:18:00;4.03;;;1.10;;
17369;SDS011;8802;52.402;4.920;2023-03-14T06:20:27;3.28;;;0.95;;
17369;SDS011;8802;52.402;4.920;2023-03-14T06:22:54;2.05;;;0.90;;
17369;SDS011;8802;52.402;4.920;2023-03-14T06:25:22;3.65;;;0.85;;
17369;SDS011;8802;52.402;4.920;2023-03-14T06:27:49;3.90;;;0.73;;
17369;SDS011;8802;52.402;4.920;2023-03-14T06:30:16;3.15;;;0.85;;
17369;SDS011;8802;52.402;4.920;2023-03-14T06:32:43;3.35;;;0.90;;
17369;SDS011;8802;52.402;4.920;2023-03-14T06:35:10;3.08;;;0.80;;
17369;SDS011;8802;52.402;4.920;2023-03-14T06:37:37;5.40;;;0.70;;
17369;SDS011;8802;52.402;4.920;2023-03-14T06:40:04;1.80;;;0.63;;
17369;SDS011;8802;52.402;4.920;2023-03-14T06:42:33;3.88;;;0.95;;
17369;SDS011;8802;52.402;4.920;2023-03-14T06:45:00;3.88;;;1.10;;
17369;SDS011;8802;52.402;4.920;2023-03-14T06:47:28;3.17;;;0.80;;
17369;SDS011;8802;52.402;4.920;2023-03-14T06:49:55;3.83;;;0.82;;
17369;SDS011;8802;52.402;4.920;2023-03-14T06:52:22;3.10;;;0.77;;
17369;SDS011;8802;52.402;4.920;2023-03-14T06:54:48;3.50;;;1.00;;
17369;SDS011;8802;52.402;4.920;2023-03-14T06:57:15;3.83;;;0.75;;
17369;SDS011;8802;52.402;4.920;2023-03-14T06:59:43;4.85;;;1.00;;
17369;SDS011;8802;52.402;4.920;2023-03-14T07:02:10;3.70;;;0.80;;
17369;SDS011;8802;52.402;4.920;2023-03-14T07:04:38;5.63;;;0.82;;
17369;SDS011;8802;52.402;4.920;2023-03-14T07:07:05;3.20;;;0.63;;
17369;SDS011;8802;52.402;4.920;2023-03-14T07:09:32;8.50;;;1.08;;
17369;SDS011;8802;52.402;4.920;2023-03-14T07:11:59;3.72;;;0.77;;
17369;SDS011;8802;52.402;4.920;2023-03-14T07:14:26;6.93;;;1.00;;
17369;SDS011;8802;52.402;4.920;2023-03-14T07:16:54;2.92;;;0.80;;
17369;SDS011;8802;52.402;4.920;2023-03-14T07:19:21;3.55;;;1.02;;
17369;SDS011;8802;52.402;4.920;2023-03-14T07:21:48;9.35;;;1.20;;
17369;SDS011;8802;52.402;4.920;2023-03-14T07:24:15;5.43;;;0.90;;
17369;SDS011;8802;52.402;4.920;2023-03-14T07:26:41;8.77;;;1.58;;
17369;SDS011;8802;52.402;4.920;2023-03-14T07:29:08;6.47;;;1.33;;
17369;SDS011;8802;52.402;4.920;2023-03-14T07:31:35;3.92;;;1.25;;
17369;SDS011;8802;52.402;4.920;2023-03-14T07:34:03;5.72;;;1.30;;
17369;SDS011;8802;52.402;4.920;2023-03-14T07:36:30;4.93;;;1.20;;
17369;SDS011;8802;52.402;4.920;2023-03-14T07:38:57;5.07;;;0.95;;
17369;SDS011;8802;52.402;4.920;2023-03-14T07:41:24;3.15;;;0.60;;
17369;SDS011;8802;52.402;4.920;2023-03-14T07:43:50;5.18;;;1.00;;
17369;SDS011;8802;52.402;4.920;2023-03-14T07:46:17;5.18;;;0.70;;
17369;SDS011;8802;52.402;4.920;2023-03-14T07:48:44;5.47;;;0.90;;
17369;SDS011;8802;52.402;4.920;2023-03-14T07:51:12;4.35;;;0.77;;
17369;SDS011;8802;52.402;4.920;2023-03-14T07:53:39;4.80;;;0.95;;
17369;SDS011;8802;52.402;4.920;2023-03-14T07:56:08;3.85;;;0.90;;
17369;SDS011;8802;52.402;4.920;2023-03-14T07:58:35;4.45;;;1.00;;
17369;SDS011;8802;52.402;4.920;2023-03-14T08:01:02;3.05;;;0.73;;
17369;SDS011;8802;52.402;4.920;2023-03-14T08:03:29;3.58;;;0.55;;
17369;SDS011;8802;52.402;4.920;2023-03-14T08:05:56;1.40;;;0.63;;
17369;SDS011;8802;52.402;4.920;2023-03-14T08:08:24;2.65;;;0.60;;
17369;SDS011;8802;52.402;4.920;2023-03-14T08:10:51;1.80;;;0.38;;
17369;SDS011;8802;52.402;4.920;2023-03-14T08:13:18;3.03;;;0.85;;
17369;SDS011;8802;52.402;4.920;2023-03-14T08:15:47;4.15;;;0.85;;
17369;SDS011;8802;52.402;4.920;2023-03-14T08:18:14;7.80;;;0.90;;
17369;SDS011;8802;52.402;4.920;2023-03-14T08:20:41;4.00;;;0.90;;
17369;SDS011;8802;52.402;4.920;2023-03-14T08:23:08;5.60;;;0.80;;
17369;SDS011;8802;52.402;4.920;2023-03-14T08:25:37;3.33;;;0.93;;
17369;SDS011;8802;52.402;4.920;2023-03-14T08:28:04;9.90;;;1.92;;
17369;SDS011;8802;52.402;4.920;2023-03-14T08:30:31;6.72;;;1.40;;
17369;SDS011;8802;52.402;4.920;2023-03-14T08:32:57;8.07;;;1.30;;
17369;SDS011;8802;52.402;4.920;2023-03-14T08:35:25;10.32;;;1.92;;
17369;SDS011;8802;52.402;4.920;2023-03-14T08:37:52;12.02;;;2.00;;
17369;SDS011;8802;52.402;4.920;2023-03-14T08:40:19;10.48;;;1.90;;
17369;SDS011;8802;52.402;4.920;2023-03-14T08:42:47;11.73;;;2.15;;
17369;SDS011;8802;52.402;4.920;2023-03-14T08:45:15;8.80;;;1.55;;
17369;SDS011;8802;52.402;4.920;2023-03-14T08:47:42;12.32;;;2.42;;
17369;SDS011;8802;52.402;4.920;2023-03-14T08:50:11;12.50;;;2.45;;
17369;SDS011;8802;52.402;4.920;2023-03-14T08:52:38;8.15;;;2.10;;
17369;SDS011;8802;52.402;4.920;2023-03-14T08:55:06;9.10;;;2.17;;
17369;SDS011;8802;52.402;4.920;2023-03-14T08:57:34;10.32;;;2.17;;
17369;SDS011;8802;52.402;4.920;2023-03-14T09:00:03;10.77;;;2.20;;
17369;SDS011;8802;52.402;4.920;2023-03-14T09:02:35;13.75;;;2.28;;
17369;SDS011;8802;52.402;4.920;2023-03-14T09:05:02;10.07;;;2.13;;
17369;SDS011;8802;52.402;4.920;2023-03-14T09:07:29;9.70;;;1.88;;
17369;SDS011;8802;52.402;4.920;2023-03-14T09:09:56;14.70;;;2.55;;
17369;SDS011;8802;52.402;4.920;2023-03-14T09:12:23;15.98;;;2.85;;
17369;SDS011;8802;52.402;4.920;2023-03-14T09:14:50;13.13;;;2.60;;
17369;SDS011;8802;52.402;4.920;2023-03-14T09:17:18;14.48;;;2.97;;
17369;SDS011;8802;52.402;4.920;2023-03-14T09:19:45;11.18;;;2.50;;
17369;SDS011;8802;52.402;4.920;2023-03-14T09:22:12;13.52;;;2.28;;
17369;SDS011;8802;52.402;4.920;2023-03-14T09:24:39;11.27;;;2.13;;
17369;SDS011;8802;52.402;4.920;2023-03-14T09:27:06;9.68;;;2.30;;
17369;SDS011;8802;52.402;4.920;2023-03-14T09:29:33;17.17;;;2.78;;
17369;SDS011;8802;52.402;4.920;2023-03-14T09:32:00;16.67;;;2.25;;
17369;SDS011;8802;52.402;4.920;2023-03-14T09:34:29;9.30;;;2.28;;
17369;SDS011;8802;52.402;4.920;2023-03-14T09:36:56;7.13;;;2.15;;
17369;SDS011;8802;52.402;4.920;2023-03-14T09:39:23;11.07;;;2.72;;
17369;SDS011;8802;52.402;4.920;2023-03-14T09:41:50;15.02;;;2.70;;
17369;SDS011;8802;52.402;4.920;2023-03-14T09:44:21;12.25;;;2.40;;
17369;SDS011;8802;52.402;4.920;2023-03-14T09:46:53;12.32;;;2.03;;
17369;SDS011;8802;52.402;4.920;2023-03-14T09:49:23;19.00;;;3.40;;
17369;SDS011;8802;52.402;4.920;2023-03-14T09:51:55;12.98;;;2.60;;
17369;SDS011;8802;52.402;4.920;2023-03-14T09:54:32;14.23;;;2.67;;
17369;SDS011;8802;52.402;4.920;2023-03-14T09:57:02;12.43;;;2.10;;
17369;SDS011;8802;52.402;4.920;2023-03-14T09:59:31;14.85;;;2.78;;
17369;SDS011;8802;52.402;4.920;2023-03-14T10:02:00;12.43;;;2.25;;
17369;SDS011;8802;52.402;4.920;2023-03-14T10:04:37;15.25;;;2.63;;
17369;SDS011;8802;52.402;4.920;2023-03-14T10:07:10;16.67;;;2.70;;
17369;SDS011;8802;52.402;4.920;2023-03-14T10:09:42;16.00;;;3.65;;
17369;SDS011;8802;52.402;4.920;2023-03-14T10:12:10;17.25;;;3.17;;
17369;SDS011;8802;52.402;4.920;2023-03-14T10:14:44;15.63;;;2.85;;
17369;SDS011;8802;52.402;4.920;2023-03-14T10:17:13;14.20;;;2.75;;
17369;SDS011;8802;52.402;4.920;2023-03-14T10:19:50;15.65;;;3.17;;
17369;SDS011;8802;52.402;4.920;2023-03-14T10:22:20;17.05;;;3.05;;
17369;SDS011;8802;52.402;4.920;2023-03-14T10:24:51;16.13;;;3.00;;
17369;SDS011;8802;52.402;4.920;2023-03-14T10:27:20;10.95;;;3.15;;
17369;SDS011;8802;52.402;4.920;2023-03-14T10:29:52;13.00;;;3.17;;
17369;SDS011;8802;52.402;4.920;2023-03-14T10:32:21;10.63;;;2.47;;
17369;SDS011;8802;52.402;4.920;2023-03-14T10:35:03;11.05;;;2.47;;
17369;SDS011;8802;52.402;4.920;2023-03-14T10:37:35;12.93;;;2.78;;
17369;SDS011;8802;52.402;4.920;2023-03-14T10:40:02;14.95;;;2.70;;
17369;SDS011;8802;52.402;4.920;2023-03-14T10:42:33;11.02;;;2.35;;
17369;SDS011;8802;52.402;4.920;2023-03-14T10:45:06;13.65;;;2.40;;
17369;SDS011;8802;52.402;4.920;2023-03-14T10:47:49;9.23;;;1.83;;
17369;SDS011;8802;52.402;4.920;2023-03-14T10:50:22;10.57;;;2.47;;
17369;SDS011;8802;52.402;4.920;2023-03-14T10:52:52;11.38;;;2.05;;
17369;SDS011;8802;52.402;4.920;2023-03-14T10:55:20;11.40;;;2.55;;
17369;SDS011;8802;52.402;4.920;2023-03-14T10:57:47;13.45;;;2.47;;
17369;SDS011;8802;52.402;4.920;2023-03-14T11:00:15;10.07;;;2.10;;
17369;SDS011;8802;52.402;4.920;2023-03-14T11:02:49;9.98;;;1.77;;
17369;SDS011;8802;52.402;4.920;2023-03-14T11:05:26;4.95;;;1.55;;
17369;SDS011;8802;52.402;4.920;2023-03-14T11:08:00;5.00;;;1.83;;
17369;SDS011;8802;52.402;4.920;2023-03-14T11:10:31;11.02;;;2.42;;
17369;SDS011;8802;52.402;4.920;2023-03-14T11:13:01;11.25;;;1.88;;
17369;SDS011;8802;52.402;4.920;2023-03-14T11:15:40;11.60;;;2.03;;
17369;SDS011;8802;52.402;4.920;2023-03-14T11:18:24;11.27;;;2.15;;
17369;SDS011;8802;52.402;4.920;2023-03-14T11:21:13;10.05;;;1.95;;
17369;SDS011;8802;52.402;4.920;2023-03-14T11:23:46;11.55;;;2.13;;
17369;SDS011;8802;52.402;4.920;2023-03-14T11:26:25;11.73;;;1.85;;
17369;SDS011;8802;52.402;4.920;2023-03-14T11:28:58;8.15;;;2.28;;
17369;SDS011;8802;52.402;4.920;2023-03-14T11:31:44;10.20;;;1.90;;
17369;SDS011;8802;52.402;4.920;2023-03-14T11:34:14;11.40;;;2.03;;
17369;SDS011;8802;52.402;4.920;2023-03-14T11:36:44;8.73;;;2.38;;
17369;SDS011;8802;52.402;4.920;2023-03-14T11:39:18;9.35;;;1.85;;
17369;SDS011;8802;52.402;4.920;2023-03-14T11:41:46;9.32;;;1.83;;
17369;SDS011;8802;52.402;4.920;2023-03-14T11:44:17;8.43;;;1.70;;
17369;SDS011;8802;52.402;4.920;2023-03-14T11:46:47;6.30;;;1.55;;
17369;SDS011;8802;52.402;4.920;2023-03-14T11:49:18;8.73;;;2.13;;
17369;SDS011;8802;52.402;4.920;2023-03-14T11:51:57;10.70;;;2.05;;
17369;SDS011;8802;52.402;4.920;2023-03-14T11:54:30;6.15;;;1.42;;
17369;SDS011;8802;52.402;4.920;2023-03-14T11:57:09;7.13;;;2.03;;
17369;SDS011;8802;52.402;4.920;2023-03-14T11:59:41;7.88;;;1.55;;
17369;SDS011;8802;52.402;4.920;2023-03-14T12:02:17;7.40;;;1.65;;
17369;SDS011;8802;52.402;4.920;2023-03-14T12:04:53;5.65;;;1.38;;
17369;SDS011;8802;52.402;4.920;2023-03-14T12:07:43;7.00;;;1.65;;
17369;SDS011;8802;52.402;4.920;2023-03-14T12:10:26;7.53;;;1.27;;
17369;SDS011;8802;52.402;4.920;2023-03-14T12:12:53;3.97;;;1.35;;
17369;SDS011;8802;52.402;4.920;2023-03-14T12:15:21;5.00;;;1.30;;
17369;SDS011;8802;52.402;4.920;2023-03-14T12:17:52;7.75;;;1.40;;
17369;SDS011;8802;52.402;4.920;2023-03-14T12:20:21;6.47;;;1.20;;
17369;SDS011;8802;52.402;4.920;2023-03-14T12:22:50;8.35;;;1.92;;
17369;SDS011;8802;52.402;4.920;2023-03-14T12:25:18;5.43;;;1.38;;
17369;SDS011;8802;52.402;4.920;2023-03-14T12:27:49;5.60;;;1.15;;
17369;SDS011;8802;52.402;4.920;2023-03-14T12:30:43;5.50;;;1.33;;
17369;SDS011;8802;52.402;4.920;2023-03-14T12:33:10;4.65;;;1.23;;
17369;SDS011;8802;52.402;4.920;2023-03-14T12:35:39;5.78;;;1.38;;
17369;SDS011;8802;52.402;4.920;2023-03-14T12:38:08;7.18;;;1.50;;
17369;SDS011;8802;52.402;4.920;2023-03-14T12:40:39;6.47;;;1.70;;
17369;SDS011;8802;52.402;4.920;2023-03-14T12:43:24;11.40;;;2.00;;
17369;SDS011;8802;52.402;4.920;2023-03-14T12:48:46;6.35;;;1.40;;
17369;SDS011;8802;52.402;4.920;2023-03-14T12:51:15;11.05;;;1.85;;
17369;SDS011;8802;52.402;4.920;2023-03-14T12:53:55;11.50;;;1.85;;
17369;SDS011;8802;52.402;4.920;2023-03-14T12:56:52;7.90;;;1.80;;
17369;SDS011;8802;52.402;4.920;2023-03-14T12:59:31;12.30;;;1.80;;
17369;SDS011;8802;52.402;4.920;2023-03-14T13:02:00;11.02;;;2.63;;
17369;SDS011;8802;52.402;4.920;2023-03-14T13:04:43;7.70;;;1.73;;
17369;SDS011;8802;52.402;4.920;2023-03-14T13:07:12;10.35;;;1.70;;
17369;SDS011;8802;52.402;4.920;2023-03-14T13:12:43;9.05;;;1.90;;
17369;SDS011;8802;52.402;4.920;2023-03-14T13:15:19;7.90;;;1.75;;
17369;SDS011;8802;52.402;4.920;2023-03-14T13:17:52;8.77;;;1.58;;
17369;SDS011;8802;52.402;4.920;2023-03-14T13:20:23;11.32;;;2.38;;
17369;SDS011;8802;52.402;4.920;2023-03-14T13:22:54;7.88;;;1.45;;
17369;SDS011;8802;52.402;4.920;2023-03-14T13:25:21;8.30;;;1.50;;
17369;SDS011;8802;52.402;4.920;2023-03-14T13:27:48;5.68;;;1.20;;
17369;SDS011;8802;52.402;4.920;2023-03-14T13:30:16;7.63;;;1.38;;
17369;SDS011;8802;52.402;4.920;2023-03-14T13:32:48;5.53;;;1.45;;
17369;SDS011;8802;52.402;4.920;2023-03-14T13:35:17;3.53;;;0.98;;
17369;SDS011;8802;52.402;4.920;2023-03-14T13:37:45;6.47;;;1.27;;
17369;SDS011;8802;52.402;4.920;2023-03-14T13:40:19;5.18;;;1.15;;
17369;SDS011;8802;52.402;4.920;2023-03-14T13:42:49;6.57;;;1.00;;
17369;SDS011;8802;52.402;4.920;2023-03-14T13:45:31;6.40;;;1.65;;
17369;SDS011;8802;52.402;4.920;2023-03-14T13:48:22;5.90;;;1.45;;
17369;SDS011;8802;52.402;4.920;2023-03-14T13:50:53;5.88;;;1.67;;
17369;SDS011;8802;52.402;4.920;2023-03-14T13:53:23;5.40;;;1.20;;
17369;SDS011;8802;52.402;4.920;2023-03-14T13:55:50;9.57;;;1.55;;
17369;SDS011;8802;52.402;4.920;2023-03-14T13:58:27;6.30;;;2.08;;
17369;SDS011;8802;52.402;4.920;2023-03-14T14:01:01;5.47;;;1.40;;
17369;SDS011;8802;52.402;4.920;2023-03-14T14:03:31;4.07;;;1.35;;
17369;SDS011;8802;52.402;4.920;2023-03-14T14:06:00;8.82;;;1.45;;
17369;SDS011;8802;52.402;4.920;2023-03-14T14:08:27;9.57;;;1.70;;
17369;SDS011;8802;52.402;4.920;2023-03-14T14:10:55;6.25;;;1.25;;
17369;SDS011;8802;52.402;4.920;2023-03-14T14:13:26;10.10;;;1.38;;
17369;SDS011;8802;52.402;4.920;2023-03-14T14:15:55;5.32;;;1.33;;
17369;SDS011;8802;52.402;4.920;2023-03-14T14:18:28;6.53;;;1.15;;
17369;SDS011;8802;52.402;4.920;2023-03-14T14:20:57;4.57;;;1.02;;
17369;SDS011;8802;52.402;4.920;2023-03-14T14:23:25;9.90;;;1.92;;
17369;SDS011;8802;52.402;4.920;2023-03-14T14:25:54;4.80;;;1.15;;
17369;SDS011;8802;52.402;4.920;2023-03-14T14:28:23;4.32;;;1.15;;
17369;SDS011;8802;52.402;4.920;2023-03-14T14:31:00;3.45;;;1.17;;
17369;SDS011;8802;52.402;4.920;2023-03-14T14:33:39;5.03;;;1.15;;
17369;SDS011;8802;52.402;4.920;2023-03-14T14:38:54;5.78;;;1.50;;
17369;SDS011;8802;52.402;4.920;2023-03-14T14:41:26;5.82;;;1.38;;
17369;SDS011;8802;52.402;4.920;2023-03-14T14:43:55;6.57;;;1.45;;
17369;SDS011;8802;52.402;4.920;2023-03-14T14:46:25;5.57;;;1.33;;
17369;SDS011;8802;52.402;4.920;2023-03-14T14:48:54;3.47;;;1.20;;
17369;SDS011;8802;52.402;4.920;2023-03-14T14:51:23;5.25;;;1.10;;
17369;SDS011;8802;52.402;4.920;2023-03-14T14:53:59;6.15;;;1.35;;
17369;SDS011;8802;52.402;4.920;2023-03-14T14:56:36;9.43;;;1.60;;
17369;SDS011;8802;52.402;4.920;2023-03-14T14:59:05;6.03;;;1.33;;
17369;SDS011;8802;52.402;4.920;2023-03-14T15:01:46;8.43;;;1.63;;
17369;SDS011;8802;52.402;4.920;2023-03-14T15:04:15;4.85;;;1.60;;
17369;SDS011;8802;52.402;4.920;2023-03-14T15:06:42;7.35;;;1.67;;
17369;SDS011;8802;52.402;4.920;2023-03-14T15:09:10;4.55;;;1.30;;
17369;SDS011;8802;52.402;4.920;2023-03-14T15:11:37;7.25;;;1.50;;
17369;SDS011;8802;52.402;4.920;2023-03-14T15:14:04;4.53;;;1.42;;
17369;SDS011;8802;52.402;4.920;2023-03-14T15:16:32;4.60;;;1.48;;